createdAt,value
2017-12-31T00:00:41.820Z,99207.13
2017-12-31T00:03:10.195Z,99213.22
2017-12-31T00:05:38.539Z,99203.31
2017-12-31T00:08:06.968Z,99213.55
2017-12-31T00:10:35.447Z,99215.11
2017-12-31T00:13:03.839Z,99217.54
2017-12-31T00:15:32.194Z,99224.88
2017-12-31T00:18:02.218Z,99235.16
2017-12-31T00:20:30.577Z,99247.48
2017-12-31T00:22:58.934Z,99261.86
2017-12-31T00:25:27.304Z,99264.98
2017-12-31T00:27:55.659Z,99279.27
2017-12-31T00:30:24.112Z,99283.17
2017-12-31T00:32:52.483Z,99272.38
2017-12-31T00:35:20.867Z,99287.43
2017-12-31T00:37:49.269Z,99276.78
2017-12-31T00:40:17.639Z,99287.25
2017-12-31T00:42:45.987Z,99286.52
2017-12-31T00:45:14.350Z,99282.81
2017-12-31T00:47:42.709Z,99298.72
2017-12-31T00:50:11.457Z,99300.16
2017-12-31T00:52:39.815Z,99300.92
2017-12-31T00:55:08.161Z,99317.60
2017-12-31T00:57:36.523Z,99313.45
2017-12-31T01:00:05.371Z,99321.59
2017-12-31T01:02:33.771Z,99339.84
2017-12-31T01:05:02.166Z,99341.89
2017-12-31T01:07:31.009Z,99354.92
2017-12-31T01:09:59.487Z,99361.94
2017-12-31T01:12:27.852Z,99371.48
2017-12-31T01:14:56.228Z,99367.98
2017-12-31T01:17:24.649Z,99371.68
2017-12-31T01:19:53.124Z,99385.19
2017-12-31T01:22:21.483Z,99386.45
2017-12-31T01:24:49.831Z,99406.43
2017-12-31T01:27:18.197Z,99400.38
2017-12-31T01:29:47.040Z,99410.25
2017-12-31T01:32:15.594Z,99410.84
2017-12-31T01:34:44.224Z,99414.73
2017-12-31T01:37:12.763Z,99428.69
2017-12-31T01:39:41.171Z,99428.25
2017-12-31T01:42:09.518Z,99424.41
2017-12-31T01:44:37.906Z,99422.48
2017-12-31T01:47:06.288Z,99431.09
2017-12-31T01:49:34.700Z,99455.61
2017-12-31T01:52:03.167Z,99454.34
2017-12-31T01:54:31.523Z,99455.22
2017-12-31T01:56:59.904Z,99452.50
2017-12-31T01:59:28.295Z,99461.07
2017-12-31T02:01:56.644Z,99463.23
2017-12-31T02:04:25.008Z,99461.37
2017-12-31T02:06:53.753Z,99467.39
2017-12-31T02:09:22.204Z,99466.89
2017-12-31T02:11:50.552Z,99466.73
2017-12-31T02:14:19.483Z,99473.70
2017-12-31T02:16:47.857Z,99476.64
2017-12-31T02:19:16.195Z,99489.48
2017-12-31T02:21:45.009Z,99500.23
2017-12-31T02:24:13.420Z,99506.66
2017-12-31T02:26:41.766Z,99517.47
2017-12-31T02:29:10.186Z,99522.43
2017-12-31T02:31:38.545Z,99522.52
2017-12-31T02:34:06.936Z,99517.44
2017-12-31T02:36:35.322Z,99519.64
2017-12-31T02:39:03.688Z,99522.38
2017-12-31T02:41:32.056Z,99528.75
2017-12-31T02:44:00.443Z,99542.22
2017-12-31T02:46:28.811Z,99534.25
2017-12-31T02:48:57.217Z,99526.66
2017-12-31T02:51:25.579Z,99532.92
2017-12-31T02:53:53.935Z,99528.86
2017-12-31T02:56:22.292Z,99538.39
2017-12-31T02:58:51.063Z,99536.20
2017-12-31T03:01:19.527Z,99534.72
2017-12-31T03:03:47.891Z,99537.05
2017-12-31T03:06:16.271Z,99539.02
2017-12-31T03:08:44.624Z,99541.94
2017-12-31T03:11:12.987Z,99564.13
2017-12-31T03:13:41.422Z,99565.95
2017-12-31T03:16:09.789Z,99571.38
2017-12-31T03:18:38.148Z,99568.97
2017-12-31T03:21:06.509Z,99575.27
2017-12-31T03:23:34.885Z,99574.42
2017-12-31T03:26:03.274Z,99589.69
2017-12-31T03:28:31.632Z,99595.33
2017-12-31T03:31:00.475Z,99591.80
2017-12-31T03:33:28.846Z,99599.83
2017-12-31T03:35:57.228Z,99598.93
2017-12-31T03:38:25.564Z,99597.87
2017-12-31T03:40:53.913Z,99601.84
2017-12-31T03:43:22.668Z,99608.05
2017-12-31T03:45:51.019Z,99609.66
2017-12-31T03:48:19.392Z,99620.84
2017-12-31T03:50:47.750Z,99629.53
2017-12-31T03:53:16.772Z,99630.66
2017-12-31T03:55:45.131Z,99640.52
2017-12-31T03:58:13.964Z,99636.36
2017-12-31T04:00:42.363Z,99643.73
2017-12-31T04:03:10.716Z,99645.84
2017-12-31T04:05:39.064Z,99646.42
2017-12-31T04:08:07.472Z,99647.94
2017-12-31T04:10:35.811Z,99650.41
2017-12-31T04:13:04.172Z,99647.73
2017-12-31T04:15:33.024Z,99645.09
2017-12-31T04:18:01.380Z,99647.77
2017-12-31T04:20:29.739Z,99657.87
2017-12-31T04:22:58.096Z,99661.67
2017-12-31T04:25:26.864Z,99661.24
2017-12-31T04:27:55.210Z,99668.23
2017-12-31T04:30:23.564Z,99661.16
2017-12-31T04:32:51.995Z,99671.14
2017-12-31T04:35:20.356Z,99682.95
2017-12-31T04:37:48.710Z,99686.88
2017-12-31T04:40:17.124Z,99694.08
2017-12-31T04:42:45.472Z,99706.36
2017-12-31T04:45:13.831Z,99694.95
2017-12-31T04:47:42.669Z,99694.95
2017-12-31T04:50:11.078Z,99700.36
2017-12-31T04:52:39.420Z,99694.34
2017-12-31T04:55:07.820Z,99686.69
2017-12-31T04:57:36.180Z,99683.95
2017-12-31T05:00:04.529Z,99687.88
2017-12-31T05:02:32.901Z,99690.91
2017-12-31T05:05:01.243Z,99697.39
2017-12-31T05:07:29.700Z,99703.00
2017-12-31T05:09:58.180Z,99708.75
2017-12-31T05:12:26.528Z,99718.06
2017-12-31T05:14:54.944Z,99716.12
2017-12-31T05:17:23.429Z,99716.08
2017-12-31T05:19:51.795Z,99720.05
2017-12-31T05:22:20.184Z,99719.02
2017-12-31T05:24:48.644Z,99714.92
2017-12-31T05:27:16.983Z,99719.09
2017-12-31T05:29:45.754Z,99709.06
2017-12-31T05:32:14.130Z,99702.80
2017-12-31T05:37:39.642Z,99703.87
2017-12-31T05:40:08.012Z,99717.28
2017-12-31T05:42:36.385Z,99722.56
2017-12-31T05:45:04.772Z,99718.27
2017-12-31T05:47:33.113Z,99718.27
2017-12-31T05:50:01.522Z,99724.02
2017-12-31T05:52:29.895Z,99733.31
2017-12-31T05:54:58.243Z,99732.19
2017-12-31T05:57:26.664Z,99722.08
2017-12-31T05:59:55.012Z,99725.19
2017-12-31T06:02:23.407Z,99731.81
2017-12-31T06:04:51.768Z,99739.52
2017-12-31T06:07:20.146Z,99746.25
2017-12-31T06:09:48.542Z,99749.73
2017-12-31T06:12:16.896Z,99737.53
2017-12-31T06:14:45.244Z,99736.98
2017-12-31T06:17:13.604Z,99739.59
2017-12-31T06:19:41.965Z,99735.22
2017-12-31T06:22:10.350Z,99743.66
2017-12-31T06:24:38.723Z,99747.41
2017-12-31T06:27:07.105Z,99743.66
2017-12-31T06:29:35.497Z,99741.06
2017-12-31T06:32:03.840Z,99741.37
2017-12-31T06:34:32.204Z,99744.66
2017-12-31T06:37:00.551Z,99746.73
2017-12-31T06:39:29.301Z,99755.98
2017-12-31T06:41:57.677Z,99745.39
2017-12-31T06:44:26.060Z,99748.59
2017-12-31T06:46:54.520Z,99752.87
2017-12-31T06:49:22.954Z,99754.59
2017-12-31T06:51:51.296Z,99749.50
2017-12-31T06:54:19.642Z,99745.39
2017-12-31T06:56:48.047Z,99741.05
2017-12-31T06:59:16.420Z,99741.66
2017-12-31T07:01:44.780Z,99740.47
2017-12-31T07:04:13.191Z,99749.20
2017-12-31T07:06:41.541Z,99747.60
2017-12-31T07:09:09.946Z,99746.09
2017-12-31T07:11:38.932Z,99742.50
2017-12-31T07:14:07.285Z,99740.53
2017-12-31T07:16:35.699Z,99742.64
2017-12-31T07:19:05.059Z,99744.09
2017-12-31T07:21:33.479Z,99753.52
2017-12-31T07:24:01.851Z,99748.26
2017-12-31T07:26:30.228Z,99748.17
2017-12-31T07:28:58.588Z,99750.41
2017-12-31T07:31:27.040Z,99748.97
2017-12-31T07:33:55.963Z,99765.30
2017-12-31T07:36:24.358Z,99763.50
2017-12-31T07:38:52.715Z,99752.45
2017-12-31T07:43:55.752Z,99750.67
2017-12-31T07:46:24.115Z,99756.59
2017-12-31T07:48:52.475Z,99746.66
2017-12-31T07:51:20.836Z,99752.67
2017-12-31T07:53:49.590Z,99753.06
2017-12-31T07:56:17.943Z,99755.08
2017-12-31T07:58:46.296Z,99760.12
2017-12-31T08:01:14.675Z,99767.41
2017-12-31T08:03:43.032Z,99762.64
2017-12-31T08:06:11.871Z,99762.95
2017-12-31T08:08:40.227Z,99773.16
2017-12-31T08:11:08.631Z,99768.73
2017-12-31T08:13:36.979Z,99764.48
2017-12-31T08:16:05.333Z,99758.27
2017-12-31T08:18:34.082Z,99756.23
2017-12-31T08:21:02.431Z,99756.86
2017-12-31T08:23:30.824Z,99752.03
2017-12-31T08:25:59.204Z,99748.91
2017-12-31T08:28:27.600Z,99748.86
2017-12-31T08:30:55.964Z,99746.41
2017-12-31T08:33:24.320Z,99741.32
2017-12-31T08:35:52.683Z,99742.35
2017-12-31T08:38:21.428Z,99738.23
2017-12-31T08:40:49.792Z,99744.94
2017-12-31T08:43:18.143Z,99746.86
2017-12-31T08:45:46.495Z,99745.51
2017-12-31T08:48:15.299Z,99748.90
2017-12-31T08:50:43.711Z,99744.14
2017-12-31T08:53:12.069Z,99742.52
2017-12-31T08:55:40.471Z,99741.02
2017-12-31T08:58:08.843Z,99735.63
2017-12-31T09:00:37.204Z,99740.89
2017-12-31T09:03:05.557Z,99738.05
2017-12-31T09:05:34.296Z,99732.88
2017-12-31T09:08:02.663Z,99735.41
2017-12-31T09:10:31.043Z,99739.03
2017-12-31T09:12:59.406Z,99744.30
2017-12-31T09:15:27.767Z,99741.44
2017-12-31T09:17:56.180Z,99739.91
2017-12-31T09:20:24.535Z,99739.52
2017-12-31T09:22:52.884Z,99733.19
2017-12-31T09:25:21.331Z,99728.45
2017-12-31T09:27:49.670Z,99729.09
2017-12-31T09:30:18.036Z,99733.43
2017-12-31T09:32:46.871Z,99731.02
2017-12-31T09:35:15.248Z,99723.55
2017-12-31T09:37:43.723Z,99714.21
2017-12-31T09:40:12.437Z,99708.33
2017-12-31T09:42:40.796Z,99702.59
2017-12-31T09:45:09.154Z,99700.89
2017-12-31T09:47:37.543Z,99703.04
2017-12-31T09:50:05.927Z,99687.77
2017-12-31T09:52:34.308Z,99691.45
2017-12-31T09:55:02.661Z,99678.95
2017-12-31T09:57:31.023Z,99671.44
2017-12-31T09:59:59.778Z,99666.70
2017-12-31T10:02:28.231Z,99668.84
2017-12-31T10:04:56.576Z,99667.55
2017-12-31T10:07:25.278Z,99666.30
2017-12-31T10:09:53.664Z,99662.89
2017-12-31T10:12:22.041Z,99659.23
2017-12-31T10:14:50.387Z,99649.86
2017-12-31T10:17:19.187Z,99642.66
2017-12-31T10:19:47.567Z,99637.50
2017-12-31T10:22:15.932Z,99632.41
2017-12-31T10:24:44.767Z,99630.03
2017-12-31T10:27:13.144Z,99629.99
2017-12-31T10:29:41.547Z,99625.71
2017-12-31T10:32:09.915Z,99624.39
2017-12-31T10:34:38.286Z,99621.19
2017-12-31T10:37:06.627Z,99627.20
2017-12-31T10:39:35.047Z,99622.54
2017-12-31T10:42:03.411Z,99610.97
2017-12-31T10:44:31.779Z,99612.91
2017-12-31T10:47:00.143Z,99607.03
2017-12-31T10:49:28.495Z,99604.84
2017-12-31T10:51:56.847Z,99607.80
2017-12-31T10:54:25.227Z,99601.98
2017-12-31T10:56:53.948Z,99597.72
2017-12-31T10:59:22.764Z,99589.97
2017-12-31T11:01:51.123Z,99579.98
2017-12-31T11:04:19.872Z,99579.38
2017-12-31T11:06:48.255Z,99569.52
2017-12-31T11:09:16.607Z,99571.36
2017-12-31T11:11:44.995Z,99582.37
2017-12-31T11:14:13.359Z,99572.23
2017-12-31T11:16:41.872Z,99567.44
2017-12-31T11:19:10.235Z,99557.97
2017-12-31T11:21:38.597Z,99559.08
2017-12-31T11:24:06.996Z,99560.44
2017-12-31T11:26:35.373Z,99555.94
2017-12-31T11:29:03.752Z,99551.55
2017-12-31T11:31:32.307Z,99549.24
2017-12-31T11:34:00.809Z,99548.77
2017-12-31T11:36:29.159Z,99554.91
2017-12-31T11:38:57.519Z,99544.50
2017-12-31T11:41:26.303Z,99552.84
2017-12-31T11:43:54.668Z,99546.05
2017-12-31T11:46:23.111Z,99539.91
2017-12-31T11:48:51.572Z,99540.27
2017-12-31T11:51:19.936Z,99537.88
2017-12-31T11:53:48.363Z,99537.38
2017-12-31T11:56:16.742Z,99543.05
2017-12-31T11:58:45.095Z,99538.26
2017-12-31T12:01:13.443Z,99532.69
2017-12-31T12:03:42.230Z,99534.94
2017-12-31T12:06:10.647Z,99539.30
2017-12-31T12:08:39.023Z,99527.39
2017-12-31T12:11:07.407Z,99529.00
2017-12-31T12:13:35.752Z,99522.22
2017-12-31T12:16:04.108Z,99525.62
2017-12-31T12:18:32.859Z,99524.48
2017-12-31T12:21:01.214Z,99517.80
2017-12-31T12:23:29.567Z,99510.14
2017-12-31T12:25:58.500Z,99516.55
2017-12-31T12:28:26.871Z,99506.27
2017-12-31T12:30:55.227Z,99504.10
2017-12-31T12:33:23.582Z,99499.00
2017-12-31T12:35:52.335Z,99493.70
2017-12-31T12:38:20.692Z,99485.69
2017-12-31T12:40:49.056Z,99495.84
2017-12-31T12:43:17.454Z,99488.53
2017-12-31T12:45:45.852Z,99489.19
2017-12-31T12:48:14.712Z,99494.05
2017-12-31T12:50:43.060Z,99481.68
2017-12-31T12:53:11.812Z,99484.46
2017-12-31T12:55:40.175Z,99477.47
2017-12-31T12:58:08.563Z,99481.14
2017-12-31T13:00:37.669Z,99469.70
2017-12-31T13:03:06.023Z,99483.64
2017-12-31T13:05:34.382Z,99475.02
2017-12-31T13:08:02.734Z,99483.12
2017-12-31T13:10:31.487Z,99479.28
2017-12-31T13:13:00.033Z,99472.17
2017-12-31T13:15:28.381Z,99471.11
2017-12-31T13:17:57.128Z,99476.50
2017-12-31T13:20:25.504Z,99476.03
2017-12-31T13:22:53.848Z,99468.83
2017-12-31T13:25:22.357Z,99477.37
2017-12-31T13:27:50.708Z,99472.83
2017-12-31T13:30:19.117Z,99472.78
2017-12-31T13:32:47.510Z,99464.83
2017-12-31T13:35:15.867Z,99458.87
2017-12-31T13:37:44.250Z,99462.28
2017-12-31T13:40:12.596Z,99456.70
2017-12-31T13:42:40.941Z,99457.89
2017-12-31T13:45:09.303Z,99458.42
2017-12-31T13:47:37.707Z,99453.95
2017-12-31T13:50:06.114Z,99453.11
2017-12-31T13:52:34.523Z,99452.90
2017-12-31T13:55:02.978Z,99444.75
2017-12-31T13:57:31.880Z,99441.32
2017-12-31T14:00:00.226Z,99441.08
2017-12-31T14:02:29.022Z,99439.75
2017-12-31T14:04:57.439Z,99434.64
2017-12-31T14:07:25.819Z,99438.28
2017-12-31T14:09:54.185Z,99442.72
2017-12-31T14:12:22.522Z,99442.58
2017-12-31T14:14:51.365Z,99440.85
2017-12-31T14:17:19.720Z,99440.92
2017-12-31T14:19:48.058Z,99439.55
2017-12-31T14:22:16.427Z,99439.91
2017-12-31T14:24:44.872Z,99440.32
2017-12-31T14:27:13.260Z,99441.31
2017-12-31T14:29:41.634Z,99441.38
2017-12-31T14:32:10.070Z,99439.88
2017-12-31T14:34:38.843Z,99441.38
2017-12-31T14:37:07.274Z,99447.64
2017-12-31T14:39:35.626Z,99430.53
2017-12-31T14:42:03.978Z,99430.91
2017-12-31T14:44:32.433Z,99427.26
2017-12-31T14:47:00.805Z,99428.33
2017-12-31T14:49:29.156Z,99431.50
2017-12-31T14:51:57.506Z,99433.02
2017-12-31T14:54:26.309Z,99428.74
2017-12-31T14:56:54.664Z,99429.30
2017-12-31T14:59:23.018Z,99431.21
2017-12-31T15:01:51.362Z,99423.48
2017-12-31T15:04:19.714Z,99432.73
2017-12-31T15:06:48.471Z,99438.81
2017-12-31T15:09:16.814Z,99433.11
2017-12-31T15:11:45.203Z,99427.52
2017-12-31T15:14:13.560Z,99436.69
2017-12-31T15:16:41.969Z,99430.00
2017-12-31T15:19:10.315Z,99429.25
2017-12-31T15:21:39.206Z,99427.73
2017-12-31T15:24:07.612Z,99423.77
2017-12-31T15:26:35.966Z,99420.36
2017-12-31T15:29:04.329Z,99421.03
2017-12-31T15:31:33.067Z,99419.02
2017-12-31T15:34:01.426Z,99416.46
2017-12-31T15:36:29.824Z,99421.83
2017-12-31T15:38:58.168Z,99419.40
2017-12-31T15:41:26.520Z,99419.22
2017-12-31T15:43:55.283Z,99422.11
2017-12-31T15:46:23.626Z,99416.46
2017-12-31T15:48:51.992Z,99412.64
2017-12-31T15:51:20.396Z,99418.06
2017-12-31T15:53:48.752Z,99420.70
2017-12-31T15:56:17.151Z,99417.80
2017-12-31T15:58:45.521Z,99422.59
2017-12-31T16:01:13.926Z,99408.89
2017-12-31T16:03:42.306Z,99411.33
2017-12-31T16:06:10.662Z,99399.87
2017-12-31T16:08:39.180Z,99407.18
2017-12-31T16:11:07.615Z,99398.58
2017-12-31T16:13:36.722Z,99392.28
2017-12-31T16:16:05.114Z,99391.33
2017-12-31T16:18:33.459Z,99381.88
2017-12-31T16:21:01.855Z,99379.33
2017-12-31T16:23:30.231Z,99376.77
2017-12-31T16:25:58.755Z,99371.78
2017-12-31T16:28:27.071Z,99374.09
2017-12-31T16:30:55.469Z,99371.77
2017-12-31T16:33:23.819Z,99370.88
2017-12-31T16:35:52.228Z,99367.29
2017-12-31T16:38:20.575Z,99360.71
2017-12-31T16:40:48.932Z,99360.70
2017-12-31T16:43:17.683Z,99362.02
2017-12-31T16:45:46.101Z,99364.31
2017-12-31T16:48:14.871Z,99378.44
2017-12-31T16:50:43.234Z,99368.36
2017-12-31T16:53:11.595Z,99368.30
2017-12-31T16:55:40.023Z,99354.34
2017-12-31T16:58:08.343Z,99358.11
2017-12-31T17:00:36.716Z,99357.11
2017-12-31T17:03:05.056Z,99357.42
2017-12-31T17:05:33.787Z,99352.22
2017-12-31T17:08:02.167Z,99361.47
2017-12-31T17:10:30.546Z,99362.25
2017-12-31T17:12:58.939Z,99368.65
2017-12-31T17:15:27.311Z,99361.78
2017-12-31T17:17:55.669Z,99368.74
2017-12-31T17:20:24.070Z,99358.70
2017-12-31T17:22:52.462Z,99355.39
2017-12-31T17:25:20.827Z,99353.06
2017-12-31T17:27:49.177Z,99359.14
2017-12-31T17:30:17.584Z,99355.24
2017-12-31T17:32:45.941Z,99351.08
2017-12-31T17:35:14.283Z,99347.36
2017-12-31T17:37:42.730Z,99347.09
2017-12-31T17:40:11.594Z,99339.72
2017-12-31T17:42:39.945Z,99342.36
2017-12-31T17:45:08.796Z,99343.25
2017-12-31T17:47:37.192Z,99335.36
2017-12-31T17:50:05.559Z,99336.22
2017-12-31T17:52:33.910Z,99337.03
2017-12-31T17:55:02.268Z,99337.89
2017-12-31T17:57:30.635Z,99330.30
2017-12-31T17:59:59.051Z,99332.62
2017-12-31T18:02:27.421Z,99326.66
2017-12-31T18:04:55.808Z,99326.91
2017-12-31T18:07:24.154Z,99326.83
2017-12-31T18:09:52.519Z,99327.19
2017-12-31T18:12:21.284Z,99320.45
2017-12-31T18:14:49.663Z,99324.59
2017-12-31T18:17:18.115Z,99323.45
2017-12-31T18:19:46.464Z,99321.81
2017-12-31T18:22:14.827Z,99315.87
2017-12-31T18:24:43.297Z,99326.73
2017-12-31T18:27:11.737Z,99312.34
2017-12-31T18:29:40.086Z,99306.00
2017-12-31T18:32:08.525Z,99304.10
2017-12-31T18:34:36.972Z,99299.45
2017-12-31T18:37:05.406Z,99308.03
2017-12-31T18:39:34.254Z,99307.53
2017-12-31T18:42:02.621Z,99301.63
2017-12-31T18:44:30.987Z,99293.87
2017-12-31T18:46:59.392Z,99288.25
2017-12-31T18:49:27.761Z,99301.18
2017-12-31T18:51:56.243Z,99289.25
2017-12-31T18:54:24.590Z,99297.81
2017-12-31T18:56:52.950Z,99294.06
2017-12-31T18:59:21.704Z,99287.45
2017-12-31T19:01:50.060Z,99280.97
2017-12-31T19:04:18.436Z,99283.91
2017-12-31T19:06:46.799Z,99287.55
2017-12-31T19:09:15.202Z,99287.42
2017-12-31T19:11:43.530Z,99285.22
2017-12-31T19:14:12.390Z,99284.51
2017-12-31T19:16:41.668Z,99288.20
2017-12-31T19:19:10.023Z,99280.45
2017-12-31T19:21:38.389Z,99283.59
2017-12-31T19:26:35.184Z,99280.48
2017-12-31T19:29:03.654Z,99277.70
2017-12-31T19:31:31.995Z,99266.23
2017-12-31T19:34:00.744Z,99270.48
2017-12-31T19:36:29.106Z,99269.50
2017-12-31T19:38:58.339Z,99269.80
2017-12-31T19:41:26.689Z,99278.48
2017-12-31T19:43:55.170Z,99262.37
2017-12-31T19:46:23.547Z,99266.53
2017-12-31T19:48:51.904Z,99259.20
2017-12-31T19:51:20.281Z,99250.62
2017-12-31T19:53:48.632Z,99252.16
2017-12-31T19:56:17.469Z,99248.50
2017-12-31T19:58:45.810Z,99265.33
2017-12-31T20:01:14.231Z,99256.60
2017-12-31T20:03:42.606Z,99261.08
2017-12-31T20:06:10.955Z,99261.84
2017-12-31T20:08:39.343Z,99264.21
2017-12-31T20:11:07.700Z,99254.23
2017-12-31T20:13:36.115Z,99254.52
2017-12-31T20:16:04.499Z,99255.98
2017-12-31T20:21:07.508Z,99260.80
2017-12-31T20:23:35.883Z,99258.05
2017-12-31T20:26:04.267Z,99254.39
2017-12-31T20:28:32.635Z,99259.74
2017-12-31T20:31:01.018Z,99249.23
2017-12-31T20:33:29.471Z,99258.34
2017-12-31T20:35:57.871Z,99248.25
2017-12-31T20:38:26.237Z,99254.80
2017-12-31T20:40:54.590Z,99251.12
2017-12-31T20:43:28.499Z,99247.13
2017-12-31T20:45:56.868Z,99242.39
2017-12-31T20:48:26.219Z,99243.70
2017-12-31T20:50:54.610Z,99240.73
2017-12-31T20:53:22.976Z,99236.55
2017-12-31T20:55:51.325Z,99235.92
2017-12-31T20:58:19.736Z,99227.08
2017-12-31T21:00:48.118Z,99229.09
2017-12-31T21:03:16.460Z,99227.95
2017-12-31T21:05:44.865Z,99221.58
2017-12-31T21:08:13.207Z,99211.42
2017-12-31T21:10:41.976Z,99203.88
2017-12-31T21:13:10.316Z,99201.93
2017-12-31T21:15:38.707Z,99201.47
2017-12-31T21:18:07.084Z,99206.45
2017-12-31T21:20:35.435Z,99202.42
2017-12-31T21:23:03.778Z,99193.31
2017-12-31T21:25:32.572Z,99198.91
2017-12-31T21:28:01.319Z,99197.58
2017-12-31T21:30:29.687Z,99199.11
2017-12-31T21:32:58.055Z,99190.12
2017-12-31T21:35:26.400Z,99201.95
2017-12-31T21:37:54.895Z,99190.60
2017-12-31T21:40:23.268Z,99193.12
2017-12-31T21:42:51.625Z,99192.86
2017-12-31T21:45:20.080Z,99177.53
2017-12-31T21:47:48.535Z,99185.64
2017-12-31T21:50:16.916Z,99190.55
2017-12-31T21:52:45.265Z,99188.13
2017-12-31T21:55:13.632Z,99194.69
2017-12-31T21:57:42.384Z,99189.30
2017-12-31T22:00:10.743Z,99185.62
2017-12-31T22:02:39.115Z,99182.11
2017-12-31T22:05:07.463Z,99183.61
2017-12-31T22:07:35.817Z,99181.48
2017-12-31T22:10:04.595Z,99170.62
2017-12-31T22:12:32.943Z,99169.11
2017-12-31T22:15:01.307Z,99177.50
2017-12-31T22:17:29.692Z,99172.50
2017-12-31T22:19:58.038Z,99167.66
2017-12-31T22:22:26.389Z,99171.39
2017-12-31T22:24:54.756Z,99172.50
2017-12-31T22:27:23.116Z,99163.06
2017-12-31T22:29:51.480Z,99169.22
2017-12-31T22:32:19.852Z,99170.61
2017-12-31T22:34:48.199Z,99166.05
2017-12-31T22:37:16.942Z,99161.86
2017-12-31T22:39:45.565Z,99151.96
2017-12-31T22:42:14.405Z,99161.44
2017-12-31T22:44:42.811Z,99155.80
2017-12-31T22:47:11.282Z,99159.76
2017-12-31T22:49:39.640Z,99157.84
2017-12-31T22:52:08.071Z,99156.34
2017-12-31T22:54:36.811Z,99154.53
2017-12-31T22:57:05.179Z,99155.89
2017-12-31T22:59:33.535Z,99150.68
2017-12-31T23:02:01.996Z,99140.13
2017-12-31T23:04:30.763Z,99148.20
2017-12-31T23:06:59.143Z,99141.63
2017-12-31T23:09:27.495Z,99136.56
2017-12-31T23:11:55.862Z,99134.44
2017-12-31T23:14:24.223Z,99130.59
2017-12-31T23:16:52.610Z,99129.75
2017-12-31T23:19:20.990Z,99127.16
2017-12-31T23:21:49.406Z,99129.83
2017-12-31T23:24:17.770Z,99134.03
2017-12-31T23:26:46.128Z,99127.71
2017-12-31T23:29:14.507Z,99117.48
2017-12-31T23:31:42.867Z,99125.64
2017-12-31T23:34:11.281Z,99121.95
2017-12-31T23:36:39.642Z,99111.89
2017-12-31T23:39:08.004Z,99111.28
2017-12-31T23:41:36.375Z,99117.16
2017-12-31T23:44:04.791Z,99112.31
2017-12-31T23:46:33.151Z,99106.88
2017-12-31T23:49:01.554Z,99114.30
2017-12-31T23:51:29.912Z,99107.70
2017-12-31T23:53:58.313Z,99099.03
2017-12-31T23:56:26.675Z,99105.79
2017-12-31T23:58:55.015Z,99103.65
